sensor_id;sensor_type;location;lat;lon;timestamp;temperature;humidity
18712;DHT22;9485;49.386;8.674;2023-11-21T00:02:19;13.20;91.90
18712;DHT22;9485;49.386;8.674;2023-11-21T00:07:40;13.20;92.00
18712;DHT22;9485;49.386;8.674;2023-11-21T00:13:01;13.20;92.00
18712;DHT22;9485;49.386;8.674;2023-11-21T00:18:23;13.10;92.00
18712;DHT22;9485;49.386;8.674;2023-11-21T00:23:44;13.20;92.10
18712;DHT22;9485;49.386;8.674;2023-11-21T00:29:05;13.10;92.10
18712;DHT22;9485;49.386;8.674;2023-11-21T00:34:29;13.10;92.10
18712;DHT22;9485;49.386;8.674;2023-11-21T00:39:50;13.10;92.20
18712;DHT22;9485;49.386;8.674;2023-11-21T00:45:11;13.10;92.20
18712;DHT22;9485;49.386;8.674;2023-11-21T00:50:33;13.20;92.30
18712;DHT22;9485;49.386;8.674;2023-11-21T00:55:54;13.20;92.30
18712;DHT22;9485;49.386;8.674;2023-11-21T01:01:17;13.20;92.30
18712;DHT22;9485;49.386;8.674;2023-11-21T01:06:39;13.20;92.30
18712;DHT22;9485;49.386;8.674;2023-11-21T01:11:59;13.20;92.10
18712;DHT22;9485;49.386;8.674;2023-11-21T01:17:20;13.20;92.40
18712;DHT22;9485;49.386;8.674;2023-11-21T01:22:44;13.30;92.40
18712;DHT22;9485;49.386;8.674;2023-11-21T01:28:04;13.30;92.40
18712;DHT22;9485;49.386;8.674;2023-11-21T01:33:25;13.30;92.40
18712;DHT22;9485;49.386;8.674;2023-11-21T01:38:47;13.30;92.40
18712;DHT22;9485;49.386;8.674;2023-11-21T01:44:09;13.30;92.40
18712;DHT22;9485;49.386;8.674;2023-11-21T01:49:30;13.30;92.40
18712;DHT22;9485;49.386;8.674;2023-11-21T01:54:53;13.30;92.30
18712;DHT22;9485;49.386;8.674;2023-11-21T02:00:14;13.40;92.40
18712;DHT22;9485;49.386;8.674;2023-11-21T02:05:38;13.40;92.40
18712;DHT22;9485;49.386;8.674;2023-11-21T02:11:00;13.40;92.30
18712;DHT22;9485;49.386;8.674;2023-11-21T02:16:22;13.40;92.30
18712;DHT22;9485;49.386;8.674;2023-11-21T02:21:42;13.40;92.30
18712;DHT22;9485;49.386;8.674;2023-11-21T02:27:06;13.40;92.30
18712;DHT22;9485;49.386;8.674;2023-11-21T02:32:26;13.40;92.30
18712;DHT22;9485;49.386;8.674;2023-11-21T02:37:47;13.40;92.30
18712;DHT22;9485;49.386;8.674;2023-11-21T02:43:09;13.50;92.30
18712;DHT22;9485;49.386;8.674;2023-11-21T02:48:30;13.50;92.30
18712;DHT22;9485;49.386;8.674;2023-11-21T02:53:51;13.50;92.30
18712;DHT22;9485;49.386;8.674;2023-11-21T02:59:13;13.50;92.30
18712;DHT22;9485;49.386;8.674;2023-11-21T03:04:34;13.50;92.20
18712;DHT22;9485;49.386;8.674;2023-11-21T03:15:18;13.50;91.90
18712;DHT22;9485;49.386;8.674;2023-11-21T03:20:39;13.50;92.10
18712;DHT22;9485;49.386;8.674;2023-11-21T03:26:00;13.50;92.10
18712;DHT22;9485;49.386;8.674;2023-11-21T03:31:23;13.40;92.00
18712;DHT22;9485;49.386;8.674;2023-11-21T03:36:43;13.40;92.10
18712;DHT22;9485;49.386;8.674;2023-11-21T03:42:05;13.40;92.20
18712;DHT22;9485;49.386;8.674;2023-11-21T03:47:30;13.40;92.30
18712;DHT22;9485;49.386;8.674;2023-11-21T03:52:51;13.40;92.40
18712;DHT22;9485;49.386;8.674;2023-11-21T03:58:12;13.40;92.40
18712;DHT22;9485;49.386;8.674;2023-11-21T04:03:34;13.40;92.50
18712;DHT22;9485;49.386;8.674;2023-11-21T04:08:55;13.40;92.50
18712;DHT22;9485;49.386;8.674;2023-11-21T04:14:15;13.50;92.50
18712;DHT22;9485;49.386;8.674;2023-11-21T04:19:38;13.50;92.40
18712;DHT22;9485;49.386;8.674;2023-11-21T04:24:58;13.40;92.30
18712;DHT22;9485;49.386;8.674;2023-11-21T04:30:19;13.40;92.20
18712;DHT22;9485;49.386;8.674;2023-11-21T04:35:42;13.40;92.20
18712;DHT22;9485;49.386;8.674;2023-11-21T04:41:02;13.40;92.20
18712;DHT22;9485;49.386;8.674;2023-11-21T04:46:24;13.40;92.30
18712;DHT22;9485;49.386;8.674;2023-11-21T04:51:46;13.30;92.30
18712;DHT22;9485;49.386;8.674;2023-11-21T04:57:07;13.40;92.30
18712;DHT22;9485;49.386;8.674;2023-11-21T05:02:27;13.40;92.30
18712;DHT22;9485;49.386;8.674;2023-11-21T05:07:50;13.40;92.30
18712;DHT22;9485;49.386;8.674;2023-11-21T05:13:12;13.40;92.40
18712;DHT22;9485;49.386;8.674;2023-11-21T05:18:36;13.40;92.40
18712;DHT22;9485;49.386;8.674;2023-11-21T05:23:58;13.30;92.40
18712;DHT22;9485;49.386;8.674;2023-11-21T05:29:19;13.40;92.40
18712;DHT22;9485;49.386;8.674;2023-11-21T05:34:40;13.40;92.40
18712;DHT22;9485;49.386;8.674;2023-11-21T05:40:03;13.40;92.40
18712;DHT22;9485;49.386;8.674;2023-11-21T05:45:25;13.40;92.40
18712;DHT22;9485;49.386;8.674;2023-11-21T05:50:45;13.50;92.50
18712;DHT22;9485;49.386;8.674;2023-11-21T05:56:08;13.50;92.50
18712;DHT22;9485;49.386;8.674;2023-11-21T06:01:29;13.50;92.40
18712;DHT22;9485;49.386;8.674;2023-11-21T06:06:50;13.50;92.30
18712;DHT22;9485;49.386;8.674;2023-11-21T06:12:13;13.50;92.30
18712;DHT22;9485;49.386;8.674;2023-11-21T06:17:35;13.50;92.30
18712;DHT22;9485;49.386;8.674;2023-11-21T06:22:56;13.60;92.30
18712;DHT22;9485;49.386;8.674;2023-11-21T06:28:18;13.50;92.20
18712;DHT22;9485;49.386;8.674;2023-11-21T06:33:39;13.50;92.30
18712;DHT22;9485;49.386;8.674;2023-11-21T06:39:00;13.50;92.30
18712;DHT22;9485;49.386;8.674;2023-11-21T06:44:23;13.50;92.30
18712;DHT22;9485;49.386;8.674;2023-11-21T06:49:43;13.50;92.30
18712;DHT22;9485;49.386;8.674;2023-11-21T06:55:07;13.60;92.30
18712;DHT22;9485;49.386;8.674;2023-11-21T07:00:30;13.60;92.40
18712;DHT22;9485;49.386;8.674;2023-11-21T07:05:51;13.60;92.40
18712;DHT22;9485;49.386;8.674;2023-11-21T07:11:11;13.60;92.50
18712;DHT22;9485;49.386;8.674;2023-11-21T07:16:33;13.70;92.50
18712;DHT22;9485;49.386;8.674;2023-11-21T07:21:56;13.70;92.40
18712;DHT22;9485;49.386;8.674;2023-11-21T07:27:18;13.70;92.40
18712;DHT22;9485;49.386;8.674;2023-11-21T07:32:40;13.70;92.40
18712;DHT22;9485;49.386;8.674;2023-11-21T07:38:00;13.80;92.40
18712;DHT22;9485;49.386;8.674;2023-11-21T07:43:21;13.70;92.40
18712;DHT22;9485;49.386;8.674;2023-11-21T07:48:45;13.80;92.50
18712;DHT22;9485;49.386;8.674;2023-11-21T07:54:07;13.80;92.50
18712;DHT22;9485;49.386;8.674;2023-11-21T07:59:27;13.80;92.50
18712;DHT22;9485;49.386;8.674;2023-11-21T08:04:50;13.80;92.50
18712;DHT22;9485;49.386;8.674;2023-11-21T08:10:11;13.90;92.50
18712;DHT22;9485;49.386;8.674;2023-11-21T08:15:31;13.90;92.50
18712;DHT22;9485;49.386;8.674;2023-11-21T08:20:54;14.00;92.60
18712;DHT22;9485;49.386;8.674;2023-11-21T08:26:16;14.00;92.70
18712;DHT22;9485;49.386;8.674;2023-11-21T08:31:37;14.10;92.70
18712;DHT22;9485;49.386;8.674;2023-11-21T08:36:59;14.10;92.60
18712;DHT22;9485;49.386;8.674;2023-11-21T08:42:21;14.10;92.50
18712;DHT22;9485;49.386;8.674;2023-11-21T08:47:42;14.20;92.50
18712;DHT22;9485;49.386;8.674;2023-11-21T08:53:05;14.20;92.60
18712;DHT22;9485;49.386;8.674;2023-11-21T08:58:26;14.20;92.80
18712;DHT22;9485;49.386;8.674;2023-11-21T09:03:47;14.30;93.00
18712;DHT22;9485;49.386;8.674;2023-11-21T09:09:10;14.40;93.00
18712;DHT22;9485;49.386;8.674;2023-11-21T09:14:31;14.50;93.10
18712;DHT22;9485;49.386;8.674;2023-11-21T09:19:51;14.70;93.20
18712;DHT22;9485;49.386;8.674;2023-11-21T09:25:13;14.90;93.30
18712;DHT22;9485;49.386;8.674;2023-11-21T09:30:35;15.00;93.40
18712;DHT22;9485;49.386;8.674;2023-11-21T09:35:56;15.00;93.30
18712;DHT22;9485;49.386;8.674;2023-11-21T09:41:23;15.30;93.00
18712;DHT22;9485;49.386;8.674;2023-11-21T09:46:54;15.30;92.50
18712;DHT22;9485;49.386;8.674;2023-11-21T09:52:24;15.30;92.20
18712;DHT22;9485;49.386;8.674;2023-11-21T09:57:49;15.20;92.00
18712;DHT22;9485;49.386;8.674;2023-11-21T10:03:10;15.20;91.80
18712;DHT22;9485;49.386;8.674;2023-11-21T10:08:32;15.00;91.80
18712;DHT22;9485;49.386;8.674;2023-11-21T10:13:55;14.90;91.80
18712;DHT22;9485;49.386;8.674;2023-11-21T10:19:19;14.80;91.90
18712;DHT22;9485;49.386;8.674;2023-11-21T10:24:43;14.80;92.00
18712;DHT22;9485;49.386;8.674;2023-11-21T10:30:07;14.70;92.00
18712;DHT22;9485;49.386;8.674;2023-11-21T10:35:44;14.70;92.30
18712;DHT22;9485;49.386;8.674;2023-11-21T10:41:11;14.70;92.40
18712;DHT22;9485;49.386;8.674;2023-11-21T10:46:36;14.80;92.50
18712;DHT22;9485;49.386;8.674;2023-11-21T10:51:57;14.80;92.40
18712;DHT22;9485;49.386;8.674;2023-11-21T10:57:18;14.80;92.50
18712;DHT22;9485;49.386;8.674;2023-11-21T11:02:43;14.80;92.70
18712;DHT22;9485;49.386;8.674;2023-11-21T11:08:08;14.90;92.60
18712;DHT22;9485;49.386;8.674;2023-11-21T11:13:32;14.90;92.60
18712;DHT22;9485;49.386;8.674;2023-11-21T11:18:54;15.00;92.50
18712;DHT22;9485;49.386;8.674;2023-11-21T11:24:31;15.00;92.40
18712;DHT22;9485;49.386;8.674;2023-11-21T11:30:11;15.00;92.20
18712;DHT22;9485;49.386;8.674;2023-11-21T11:35:52;15.00;92.10
18712;DHT22;9485;49.386;8.674;2023-11-21T11:41:25;15.00;91.80
18712;DHT22;9485;49.386;8.674;2023-11-21T11:46:47;14.90;91.80
18712;DHT22;9485;49.386;8.674;2023-11-21T11:52:38;14.80;91.40
18712;DHT22;9485;49.386;8.674;2023-11-21T11:58:00;14.80;91.90
18712;DHT22;9485;49.386;8.674;2023-11-21T12:03:20;14.80;92.20
18712;DHT22;9485;49.386;8.674;2023-11-21T12:08:43;14.80;92.20
18712;DHT22;9485;49.386;8.674;2023-11-21T12:14:04;14.80;92.00
18712;DHT22;9485;49.386;8.674;2023-11-21T12:19:27;14.80;92.00
18712;DHT22;9485;49.386;8.674;2023-11-21T12:24:49;14.70;91.90
18712;DHT22;9485;49.386;8.674;2023-11-21T12:30:11;14.60;91.80
18712;DHT22;9485;49.386;8.674;2023-11-21T12:35:35;14.60;92.00
18712;DHT22;9485;49.386;8.674;2023-11-21T12:40:58;14.60;92.80
18712;DHT22;9485;49.386;8.674;2023-11-21T12:46:18;14.90;93.60
18712;DHT22;9485;49.386;8.674;2023-11-21T12:51:40;15.20;93.80
18712;DHT22;9485;49.386;8.674;2023-11-21T12:57:03;15.50;93.60
18712;DHT22;9485;49.386;8.674;2023-11-21T13:02:27;15.70;93.40
18712;DHT22;9485;49.386;8.674;2023-11-21T13:07:50;15.90;93.20
18712;DHT22;9485;49.386;8.674;2023-11-21T13:13:15;16.00;93.00
18712;DHT22;9485;49.386;8.674;2023-11-21T13:18:37;16.10;92.30
18712;DHT22;9485;49.386;8.674;2023-11-21T13:23:59;16.10;91.70
18712;DHT22;9485;49.386;8.674;2023-11-21T13:29:21;16.00;91.50
18712;DHT22;9485;49.386;8.674;2023-11-21T13:34:42;15.90;91.50
18712;DHT22;9485;49.386;8.674;2023-11-21T13:40:05;15.80;91.20
18712;DHT22;9485;49.386;8.674;2023-11-21T13:45:35;15.80;91.50
18712;DHT22;9485;49.386;8.674;2023-11-21T13:50:56;15.70;91.80
18712;DHT22;9485;49.386;8.674;2023-11-21T13:56:20;15.80;91.80
18712;DHT22;9485;49.386;8.674;2023-11-21T14:01:44;15.80;91.70
18712;DHT22;9485;49.386;8.674;2023-11-21T14:07:14;15.80;91.70
18712;DHT22;9485;49.386;8.674;2023-11-21T14:12:45;15.80;91.70
18712;DHT22;9485;49.386;8.674;2023-11-21T14:18:07;15.80;91.20
18712;DHT22;9485;49.386;8.674;2023-11-21T14:23:30;15.80;91.20
18712;DHT22;9485;49.386;8.674;2023-11-21T14:28:50;15.80;91.30
18712;DHT22;9485;49.386;8.674;2023-11-21T14:34:13;15.70;91.30
18712;DHT22;9485;49.386;8.674;2023-11-21T14:39:35;15.70;91.10
18712;DHT22;9485;49.386;8.674;2023-11-21T14:45:00;15.60;91.10
18712;DHT22;9485;49.386;8.674;2023-11-21T14:50:27;15.50;91.00
18712;DHT22;9485;49.386;8.674;2023-11-21T14:56:03;15.50;91.00
18712;DHT22;9485;49.386;8.674;2023-11-21T15:01:24;15.40;91.00
18712;DHT22;9485;49.386;8.674;2023-11-21T15:07:03;15.30;90.90
18712;DHT22;9485;49.386;8.674;2023-11-21T15:12:25;15.20;90.60
18712;DHT22;9485;49.386;8.674;2023-11-21T15:17:51;15.10;90.60
18712;DHT22;9485;49.386;8.674;2023-11-21T15:23:13;15.00;90.70
18712;DHT22;9485;49.386;8.674;2023-11-21T15:28:36;14.90;90.60
18712;DHT22;9485;49.386;8.674;2023-11-21T15:33:57;14.80;90.60
18712;DHT22;9485;49.386;8.674;2023-11-21T15:39:21;14.70;90.60
18712;DHT22;9485;49.386;8.674;2023-11-21T15:44:45;14.60;90.60
18712;DHT22;9485;49.386;8.674;2023-11-21T15:50:07;14.50;90.60
18712;DHT22;9485;49.386;8.674;2023-11-21T15:55:31;14.40;90.60
18712;DHT22;9485;49.386;8.674;2023-11-21T16:00:55;14.30;90.50
18712;DHT22;9485;49.386;8.674;2023-11-21T16:06:17;14.20;90.60
18712;DHT22;9485;49.386;8.674;2023-11-21T16:11:38;14.10;90.60
18712;DHT22;9485;49.386;8.674;2023-11-21T16:16:59;14.10;90.70
18712;DHT22;9485;49.386;8.674;2023-11-21T16:22:20;14.00;90.80
18712;DHT22;9485;49.386;8.674;2023-11-21T16:27:42;13.90;90.80
18712;DHT22;9485;49.386;8.674;2023-11-21T16:33:03;13.80;90.70
18712;DHT22;9485;49.386;8.674;2023-11-21T16:38:23;13.80;90.80
18712;DHT22;9485;49.386;8.674;2023-11-21T16:43:45;13.70;90.90
18712;DHT22;9485;49.386;8.674;2023-11-21T16:49:07;13.70;91.10
18712;DHT22;9485;49.386;8.674;2023-11-21T16:54:27;13.70;91.20
18712;DHT22;9485;49.386;8.674;2023-11-21T16:59:50;13.70;91.20
18712;DHT22;9485;49.386;8.674;2023-11-21T17:05:11;13.70;91.30
18712;DHT22;9485;49.386;8.674;2023-11-21T17:10:32;13.70;91.30
18712;DHT22;9485;49.386;8.674;2023-11-21T17:15:54;13.70;91.40
18712;DHT22;9485;49.386;8.674;2023-11-21T17:21:15;13.70;91.30
18712;DHT22;9485;49.386;8.674;2023-11-21T17:26:35;13.80;91.40
18712;DHT22;9485;49.386;8.674;2023-11-21T17:31:57;13.80;91.30
18712;DHT22;9485;49.386;8.674;2023-11-21T17:37:18;13.80;91.30
18712;DHT22;9485;49.386;8.674;2023-11-21T17:42:39;13.80;91.30
18712;DHT22;9485;49.386;8.674;2023-11-21T17:48:01;13.80;91.30
18712;DHT22;9485;49.386;8.674;2023-11-21T17:53:22;13.90;91.30
18712;DHT22;9485;49.386;8.674;2023-11-21T17:58:43;13.90;91.30
18712;DHT22;9485;49.386;8.674;2023-11-21T18:04:05;13.90;91.20
18712;DHT22;9485;49.386;8.674;2023-11-21T18:09:29;13.90;91.20
18712;DHT22;9485;49.386;8.674;2023-11-21T18:14:50;13.90;91.20
18712;DHT22;9485;49.386;8.674;2023-11-21T18:20:12;13.90;91.10
18712;DHT22;9485;49.386;8.674;2023-11-21T18:25:33;13.90;90.90
18712;DHT22;9485;49.386;8.674;2023-11-21T18:30:53;13.80;91.00
18712;DHT22;9485;49.386;8.674;2023-11-21T18:36:16;13.80;91.00
18712;DHT22;9485;49.386;8.674;2023-11-21T18:41:36;13.80;91.00
18712;DHT22;9485;49.386;8.674;2023-11-21T18:46:57;13.70;91.00
18712;DHT22;9485;49.386;8.674;2023-11-21T18:52:19;13.70;90.40
18712;DHT22;9485;49.386;8.674;2023-11-21T18:57:40;13.70;91.10
18712;DHT22;9485;49.386;8.674;2023-11-21T19:03:00;13.60;91.20
18712;DHT22;9485;49.386;8.674;2023-11-21T19:08:22;13.70;91.20
18712;DHT22;9485;49.386;8.674;2023-11-21T19:13:43;13.70;91.20
18712;DHT22;9485;49.386;8.674;2023-11-21T19:19:05;13.70;91.20
18712;DHT22;9485;49.386;8.674;2023-11-21T19:24:28;13.70;91.20
18712;DHT22;9485;49.386;8.674;2023-11-21T19:29:49;13.70;91.10
18712;DHT22;9485;49.386;8.674;2023-11-21T19:35:10;13.70;91.30
18712;DHT22;9485;49.386;8.674;2023-11-21T19:40:33;13.70;91.30
18712;DHT22;9485;49.386;8.674;2023-11-21T19:45:53;13.70;91.30
18712;DHT22;9485;49.386;8.674;2023-11-21T19:51:15;13.70;91.30
18712;DHT22;9485;49.386;8.674;2023-11-21T19:56:39;13.60;91.20
18712;DHT22;9485;49.386;8.674;2023-11-21T20:02:00;13.60;91.20
18712;DHT22;9485;49.386;8.674;2023-11-21T20:07:21;13.60;91.30
18712;DHT22;9485;49.386;8.674;2023-11-21T20:12:46;13.70;91.40
18712;DHT22;9485;49.386;8.674;2023-11-21T20:18:07;13.60;91.40
18712;DHT22;9485;49.386;8.674;2023-11-21T20:23:30;13.60;91.40
18712;DHT22;9485;49.386;8.674;2023-11-21T20:28:52;13.60;91.40
18712;DHT22;9485;49.386;8.674;2023-11-21T20:34:14;13.60;91.40
18712;DHT22;9485;49.386;8.674;2023-11-21T20:39:35;13.60;91.40
18712;DHT22;9485;49.386;8.674;2023-11-21T20:44:58;13.60;91.40
18712;DHT22;9485;49.386;8.674;2023-11-21T20:50:18;13.60;91.40
18712;DHT22;9485;49.386;8.674;2023-11-21T20:55:41;13.60;91.40
18712;DHT22;9485;49.386;8.674;2023-11-21T21:01:09;13.60;91.40
18712;DHT22;9485;49.386;8.674;2023-11-21T21:06:30;13.60;91.40
18712;DHT22;9485;49.386;8.674;2023-11-21T21:11:51;13.50;91.40
18712;DHT22;9485;49.386;8.674;2023-11-21T21:17:13;13.50;91.40
18712;DHT22;9485;49.386;8.674;2023-11-21T21:22:33;13.50;91.40
18712;DHT22;9485;49.386;8.674;2023-11-21T21:27:54;13.50;91.50
18712;DHT22;9485;49.386;8.674;2023-11-21T21:33:15;13.50;91.50
18712;DHT22;9485;49.386;8.674;2023-11-21T21:38:36;13.50;91.50
18712;DHT22;9485;49.386;8.674;2023-11-21T21:43:58;13.40;91.50
18712;DHT22;9485;49.386;8.674;2023-11-21T21:49:20;13.50;91.50
18712;DHT22;9485;49.386;8.674;2023-11-21T21:54:41;13.40;91.40
18712;DHT22;9485;49.386;8.674;2023-11-21T22:00:02;13.50;91.50
18712;DHT22;9485;49.386;8.674;2023-11-21T22:05:32;13.40;91.50
18712;DHT22;9485;49.386;8.674;2023-11-21T22:10:53;13.40;91.60
18712;DHT22;9485;49.386;8.674;2023-11-21T22:16:15;13.40;91.40
18712;DHT22;9485;49.386;8.674;2023-11-21T22:21:37;13.50;91.40
18712;DHT22;9485;49.386;8.674;2023-11-21T22:26:58;13.40;91.20
18712;DHT22;9485;49.386;8.674;2023-11-21T22:32:20;13.40;91.10
18712;DHT22;9485;49.386;8.674;2023-11-21T22:37:42;13.30;90.70
18712;DHT22;9485;49.386;8.674;2023-11-21T22:43:03;13.30;90.70
18712;DHT22;9485;49.386;8.674;2023-11-21T22:48:24;13.20;90.70
18712;DHT22;9485;49.386;8.674;2023-11-21T22:53:47;13.20;90.70
18712;DHT22;9485;49.386;8.674;2023-11-21T22:59:08;13.10;90.50
18712;DHT22;9485;49.386;8.674;2023-11-21T23:04:29;13.00;90.50
18712;DHT22;9485;49.386;8.674;2023-11-21T23:09:51;12.90;90.40
18712;DHT22;9485;49.386;8.674;2023-11-21T23:15:11;12.90;90.50
18712;DHT22;9485;49.386;8.674;2023-11-21T23:20:32;12.90;90.50
18712;DHT22;9485;49.386;8.674;2023-11-21T23:25:56;12.80;90.40
18712;DHT22;9485;49.386;8.674;2023-11-21T23:31:17;12.80;90.30
18712;DHT22;9485;49.386;8.674;2023-11-21T23:36:38;12.70;90.30
18712;DHT22;9485;49.386;8.674;2023-11-21T23:42:00;12.60;90.40
18712;DHT22;9485;49.386;8.674;2023-11-21T23:47:21;12.60;90.40
18712;DHT22;9485;49.386;8.674;2023-11-21T23:52:41;12.50;90.50
18712;DHT22;9485;49.386;8.674;2023-11-21T23:58:03;12.50;90.20
